Time;durP1;ratioP1;P1;durP2;ratioP2;P2;SDS_P1;SDS_P2;PMS_P1;PMS_P2;Temp;Humidity;BMP_temperature;BMP_pressure;BME280_temperature;BME280_humidity;BME280_pressure;Samples;Min_cycle;Max_cycle;Signal;HPM_P1;HPM_P2
2021/11/19 00:00:21;;;;;;;40.80;26.05;;;5.80;71.30;;;;;;4957574;28;20062;-61
2021/11/19 00:02:47;;;;;;;38.65;25.50;;;5.80;71.20;;;;;;4956639;28;20031;-62
2021/11/19 00:05:12;;;;;;;37.35;24.83;;;5.80;71.20;;;;;;4956524;28;20379;-61
2021/11/19 00:07:38;;;;;;;39.95;25.25;;;5.90;71.40;;;;;;4957620;28;20506;-61
2021/11/19 00:10:07;;;;;;;39.72;23.73;;;5.90;71.30;;;;;;4957446;28;20035;-61
2021/11/19 00:12:32;;;;;;;41.63;27.63;;;5.90;71.30;;;;;;4957360;28;20399;-61
2021/11/19 00:14:58;;;;;;;39.28;25.55;;;5.90;71.30;;;;;;4957343;28;20086;-61
2021/11/19 00:17:24;;;;;;;39.00;26.98;;;6.00;71.30;;;;;;4957256;28;20035;-61
2021/11/19 00:19:49;;;;;;;38.00;26.52;;;6.00;71.30;;;;;;4957184;28;20042;-61
2021/11/19 00:22:17;;;;;;;34.63;22.80;;;6.00;71.40;;;;;;4955026;28;20027;-61
2021/11/19 00:24:44;;;;;;;36.17;23.92;;;6.00;71.50;;;;;;4956527;28;20027;-62
2021/11/19 00:27:13;;;;;;;36.33;24.95;;;6.00;71.50;;;;;;4954671;29;20030;-59
2021/11/19 00:29:39;;;;;;;39.25;25.50;;;6.10;71.60;;;;;;4957306;28;20064;-61
2021/11/19 00:32:06;;;;;;;41.15;27.55;;;6.10;71.50;;;;;;4957073;28;20399;-60
2021/11/19 00:34:32;;;;;;;38.83;25.63;;;6.20;71.70;;;;;;4956968;28;20027;-61
2021/11/19 00:36:58;;;;;;;46.17;28.52;;;6.20;71.50;;;;;;4955939;28;20049;-60
2021/11/19 00:39:26;;;;;;;39.15;26.52;;;6.20;71.60;;;;;;4956583;28;20162;-60
2021/11/19 00:41:53;;;;;;;41.95;26.83;;;6.20;71.60;;;;;;4956841;28;20074;-62
2021/11/19 00:44:20;;;;;;;40.00;26.90;;;6.30;71.70;;;;;;4955682;28;20071;-61
2021/11/19 00:46:48;;;;;;;38.35;25.00;;;6.30;71.90;;;;;;4956532;28;20035;-61
2021/11/19 00:49:16;;;;;;;41.42;24.58;;;6.30;72.00;;;;;;4941705;29;20038;-61
2021/11/19 00:51:48;;;;;;;37.45;23.58;;;6.30;72.10;;;;;;4956559;28;20063;-61
2021/11/19 00:54:15;;;;;;;37.33;23.90;;;6.30;72.00;;;;;;4955461;29;20058;-61
2021/11/19 00:56:56;;;;;;;38.55;24.38;;;6.30;72.00;;;;;;4953888;28;20387;-61
2021/11/19 00:59:23;;;;;;;39.63;24.42;;;6.40;72.00;;;;;;4950437;29;20042;-61
2021/11/19 01:01:56;;;;;;;41.03;25.60;;;6.40;72.00;;;;;;4956049;28;20468;-60
2021/11/19 01:04:23;;;;;;;40.95;26.40;;;6.50;72.00;;;;;;4956746;28;20059;-61
2021/11/19 01:06:49;;;;;;;43.60;28.10;;;6.50;71.90;;;;;;4956359;28;20030;-61
2021/11/19 01:09:27;;;;;;;39.90;22.95;;;6.50;71.90;;;;;;4956325;28;20039;-60
2021/11/19 01:11:55;;;;;;;45.88;27.67;;;6.60;72.00;;;;;;4937128;29;20036;-59
2021/11/19 01:14:46;;;;;;;46.05;28.73;;;6.50;72.00;;;;;;4937112;29;20035;-61
2021/11/19 01:17:16;;;;;;;38.92;24.02;;;6.60;72.20;;;;;;4939543;29;20085;-61
2021/11/19 01:19:47;;;;;;;41.37;25.83;;;6.60;72.30;;;;;;4955989;28;20024;-61
2021/11/19 01:22:37;;;;;;;44.83;28.53;;;6.60;72.30;;;;;;4956227;28;20027;-60
2021/11/19 01:25:05;;;;;;;41.42;25.58;;;6.50;72.30;;;;;;4956165;28;20471;-62
2021/11/19 01:27:31;;;;;;;46.30;28.92;;;6.50;72.30;;;;;;4954981;28;20027;-61
2021/11/19 01:29:57;;;;;;;43.45;25.92;;;6.50;72.30;;;;;;4956240;28;20375;-58
2021/11/19 01:32:25;;;;;;;40.53;25.48;;;6.50;72.50;;;;;;4955912;28;20033;-59
2021/11/19 01:34:52;;;;;;;41.38;27.35;;;6.50;72.80;;;;;;4955359;28;20498;-59
2021/11/19 01:37:18;;;;;;;44.42;27.23;;;6.50;72.70;;;;;;4955562;28;20086;-59
2021/11/19 01:39:45;;;;;;;48.17;28.50;;;6.50;72.70;;;;;;4955713;28;20051;-60
2021/11/19 01:42:29;;;;;;;45.63;26.13;;;6.50;72.80;;;;;;4955267;28;20471;-61
2021/11/19 01:45:11;;;;;;;44.13;25.48;;;6.50;72.80;;;;;;4955458;28;20034;-59
2021/11/19 01:47:40;;;;;;;43.67;25.55;;;6.50;73.00;;;;;;4955998;28;20033;-61
2021/11/19 01:50:17;;;;;;;47.42;25.58;;;6.50;73.10;;;;;;4955615;28;20027;-61
2021/11/19 01:52:57;;;;;;;39.85;24.95;;;6.50;73.20;;;;;;4954330;29;20031;-61
2021/11/19 01:55:38;;;;;;;38.17;23.70;;;6.50;73.20;;;;;;4955569;28;20550;-61
2021/11/19 01:58:20;;;;;;;42.50;26.50;;;6.50;73.20;;;;;;4953817;28;20033;-61
2021/11/19 02:00:52;;;;;;;47.28;28.58;;;6.60;73.30;;;;;;4946559;29;20031;-59
2021/11/19 02:03:22;;;;;;;40.53;26.30;;;6.60;73.20;;;;;;4955283;28;20050;-59
2021/11/19 02:06:05;;;;;;;51.53;28.83;;;6.60;73.20;;;;;;4949761;28;20039;-61
2021/11/19 02:08:40;;;;;;;44.85;28.38;;;6.60;73.40;;;;;;4955129;28;20023;-60
2021/11/19 02:11:30;;;;;;;49.58;31.38;;;6.60;73.50;;;;;;4954964;28;20118;-61
2021/11/19 02:13:58;;;;;;;43.25;26.40;;;6.60;73.60;;;;;;4955338;28;20027;-61
2021/11/19 02:16:28;;;;;;;49.70;27.58;;;6.60;73.60;;;;;;4953973;28;20046;-60
2021/11/19 02:19:06;;;;;;;41.00;25.50;;;6.60;73.70;;;;;;4955167;28;20098;-61
2021/11/19 02:21:40;;;;;;;45.20;26.48;;;6.60;73.70;;;;;;4953841;28;20031;-61
2021/11/19 02:24:13;;;;;;;41.28;24.77;;;6.70;73.80;;;;;;4954873;28;20479;-61
2021/11/19 02:26:46;;;;;;;42.33;24.85;;;6.70;73.80;;;;;;4953928;29;20103;-59
2021/11/19 02:29:13;;;;;;;40.67;23.00;;;6.80;73.80;;;;;;4954714;28;20503;-61
2021/11/19 02:31:53;;;;;;;43.75;25.25;;;6.70;73.70;;;;;;4940187;29;20031;-59
2021/11/19 02:34:20;;;;;;;42.83;25.55;;;6.80;73.80;;;;;;4943212;29;20364;-61
2021/11/19 02:37:11;;;;;;;44.17;26.38;;;6.80;73.90;;;;;;4954978;29;20039;-60
2021/11/19 02:39:44;;;;;;;41.92;24.40;;;6.80;74.00;;;;;;4944738;29;20047;-59
2021/11/19 02:42:32;;;;;;;38.65;21.77;;;6.90;74.00;;;;;;4955256;29;20384;-61
2021/11/19 02:45:03;;;;;;;44.03;23.45;;;6.90;74.00;;;;;;4954760;29;20372;-58
2021/11/19 02:47:31;;;;;;;45.20;25.27;;;6.90;74.10;;;;;;4954874;28;20438;-58
2021/11/19 02:49:57;;;;;;;42.35;25.13;;;7.00;74.20;;;;;;4953818;28;20122;-60
2021/11/19 02:52:34;;;;;;;47.47;28.13;;;7.00;74.20;;;;;;4954038;28;20038;-62
2021/11/19 02:55:03;;;;;;;49.78;27.67;;;7.00;74.20;;;;;;4954624;28;20038;-59
2021/11/19 02:57:28;;;;;;;49.95;26.13;;;7.00;74.30;;;;;;4955119;28;20039;-59
2021/11/19 02:59:56;;;;;;;49.17;28.95;;;7.00;74.20;;;;;;4954726;28;20036;-59
2021/11/19 03:02:29;;;;;;;43.65;25.75;;;7.10;74.30;;;;;;4954788;28;20019;-59
2021/11/19 03:04:59;;;;;;;46.15;24.45;;;7.00;74.50;;;;;;4952246;28;20027;-60
2021/11/19 03:07:25;;;;;;;46.45;25.73;;;7.10;74.50;;;;;;4952834;29;20034;-62
2021/11/19 03:09:58;;;;;;;46.42;24.80;;;7.00;74.40;;;;;;4954623;28;20031;-61
2021/11/19 03:12:25;;;;;;;47.88;26.98;;;7.00;74.50;;;;;;4954965;28;20032;-61
2021/11/19 03:14:53;;;;;;;45.97;28.33;;;7.00;74.40;;;;;;4953793;28;20023;-61
2021/11/19 03:17:20;;;;;;;48.22;28.25;;;7.00;74.20;;;;;;4954747;28;20114;-58
2021/11/19 03:19:47;;;;;;;48.42;30.83;;;7.00;74.30;;;;;;4954552;28;20119;-60
2021/11/19 03:22:15;;;;;;;54.60;31.98;;;7.00;74.20;;;;;;4956947;28;20023;-55
2021/11/19 03:24:42;;;;;;;48.40;30.30;;;7.00;74.20;;;;;;4958443;28;20039;-61
2021/11/19 03:27:11;;;;;;;45.63;27.13;;;7.00;74.30;;;;;;4958274;28;20070;-60
2021/11/19 03:29:41;;;;;;;45.58;28.90;;;7.00;74.40;;;;;;4948432;28;20032;-60
2021/11/19 03:32:09;;;;;;;46.90;29.17;;;7.00;74.40;;;;;;4943254;29;20027;-59
2021/11/19 03:34:36;;;;;;;46.45;28.63;;;7.00;74.50;;;;;;4957073;28;20038;-59
2021/11/19 03:37:02;;;;;;;48.85;29.70;;;7.00;74.50;;;;;;4946290;28;20047;-61
2021/11/19 03:39:29;;;;;;;45.38;29.25;;;7.00;74.40;;;;;;4956764;28;20051;-59
2021/11/19 03:41:56;;;;;;;49.90;27.00;;;7.00;74.40;;;;;;4938863;29;20526;-61
2021/11/19 03:44:28;;;;;;;47.13;28.80;;;7.00;74.50;;;;;;4938475;29;20028;-61
2021/11/19 03:46:53;;;;;;;;;;;7.00;74.60;;;;;;4937996;29;20032;-61
2021/11/19 03:49:20;;;;;;;43.25;27.50;;;6.90;74.30;;;;;;4939379;29;20350;-61
2021/11/19 03:51:59;;;;;;;45.75;27.58;;;7.00;74.60;;;;;;4957668;28;20050;-61
2021/11/19 03:54:27;;;;;;;50.63;29.02;;;7.00;74.40;;;;;;4957750;28;20023;-62
2021/11/19 03:56:54;;;;;;;43.10;27.45;;;7.00;74.40;;;;;;4954853;28;20503;-59
2021/11/19 03:59:20;;;;;;;44.25;27.55;;;7.00;74.50;;;;;;4957557;28;20042;-59
2021/11/19 04:01:49;;;;;;;43.20;25.45;;;7.00;74.50;;;;;;4957618;28;20027;-60
2021/11/19 04:04:17;;;;;;;43.47;25.25;;;7.00;74.50;;;;;;4957271;28;20037;-61
2021/11/19 04:06:43;;;;;;;45.20;27.08;;;7.10;74.60;;;;;;4957381;28;20122;-59
2021/11/19 04:09:09;;;;;;;43.88;26.52;;;7.10;74.40;;;;;;4957566;28;20530;-60
2021/11/19 04:11:35;;;;;;;47.10;28.92;;;7.10;74.50;;;;;;4956637;28;20027;-61
2021/11/19 04:14:01;;;;;;;52.33;30.08;;;7.10;74.30;;;;;;4956175;28;20102;-61
2021/11/19 04:16:37;;;;;;;51.45;30.80;;;7.10;74.40;;;;;;4956756;28;20058;-61
2021/11/19 04:19:04;;;;;;;47.88;30.90;;;7.10;74.30;;;;;;4957014;29;20499;-59
2021/11/19 04:21:30;;;;;;;45.97;27.70;;;7.10;74.30;;;;;;4957293;29;20031;-61
2021/11/19 04:23:57;;;;;;;48.03;29.83;;;7.10;74.90;;;;;;4957220;29;20027;-61
2021/11/19 04:26:25;;;;;;;45.95;29.02;;;7.10;74.30;;;;;;4957134;29;20106;-61
2021/11/19 04:28:51;;;;;;;43.38;24.58;;;7.10;74.40;;;;;;4956153;29;20110;-61
2021/11/19 04:31:19;;;;;;;46.15;26.65;;;7.10;74.60;;;;;;4957058;28;20127;-61
2021/11/19 04:33:46;;;;;;;43.03;25.85;;;7.10;74.70;;;;;;4955459;28;20059;-61
2021/11/19 04:36:12;;;;;;;49.33;27.98;;;7.10;74.40;;;;;;4950832;28;20029;-61
2021/11/19 04:38:38;;;;;;;44.08;28.38;;;7.10;74.50;;;;;;4956523;28;20023;-60
2021/11/19 04:41:04;;;;;;;43.58;26.63;;;7.20;74.50;;;;;;4955596;29;20047;-61
2021/11/19 04:43:31;;;;;;;46.45;27.33;;;7.10;74.50;;;;;;4957118;28;20383;-61
2021/11/19 04:45:57;;;;;;;39.97;23.77;;;7.10;74.50;;;;;;4937697;29;20027;-61
2021/11/19 04:48:24;;;;;;;47.75;28.80;;;7.20;74.60;;;;;;4937648;29;20082;-61
2021/11/19 04:50:51;;;;;;;48.97;29.63;;;7.20;74.60;;;;;;4951310;29;20042;-60
2021/11/19 04:53:20;;;;;;;49.05;28.10;;;7.20;74.50;;;;;;4956692;28;20027;-60
2021/11/19 04:55:46;;;;;;;39.50;24.88;;;7.20;74.60;;;;;;4955475;29;20027;-61
2021/11/19 04:58:12;;;;;;;41.92;26.42;;;7.20;74.50;;;;;;4955449;29;20539;-61
2021/11/19 05:00:49;;;;;;;39.40;24.02;;;7.20;74.70;;;;;;4955477;28;20035;-60
2021/11/19 05:03:15;;;;;;;44.97;25.40;;;7.20;74.70;;;;;;4955202;28;20547;-60
2021/11/19 05:05:43;;;;;;;42.67;25.65;;;7.20;74.60;;;;;;4956471;28;20016;-60
2021/11/19 05:08:09;;;;;;;47.60;27.67;;;7.20;74.60;;;;;;4955233;29;20062;-61
2021/11/19 05:10:38;;;;;;;42.92;27.40;;;7.20;74.70;;;;;;4956319;28;20031;-61
2021/11/19 05:13:06;;;;;;;44.05;27.00;;;7.20;74.70;;;;;;4955625;28;20036;-61
2021/11/19 05:15:32;;;;;;;43.08;24.73;;;7.20;74.70;;;;;;4956280;28;20046;-61
2021/11/19 05:17:57;;;;;;;45.45;24.50;;;7.20;74.80;;;;;;4940994;28;20036;-61
2021/11/19 05:20:25;;;;;;;44.97;27.08;;;7.20;74.80;;;;;;4937072;29;20591;-60
2021/11/19 05:22:51;;;;;;;43.80;27.42;;;7.20;74.70;;;;;;4937368;29;20028;-60
2021/11/19 05:25:21;;;;;;;41.78;26.73;;;7.20;74.80;;;;;;4937009;29;20031;-61
2021/11/19 05:27:47;;;;;;;39.53;24.63;;;7.20;74.90;;;;;;4937006;29;20411;-61
2021/11/19 05:30:13;;;;;;;34.78;20.92;;;7.20;74.90;;;;;;4947586;29;20031;-60
2021/11/19 05:32:40;;;;;;;39.78;25.20;;;7.20;75.10;;;;;;4951491;28;20492;-60
2021/11/19 05:35:08;;;;;;;38.80;23.73;;;7.20;75.10;;;;;;4953914;29;20472;-60
2021/11/19 05:37:34;;;;;;;38.75;24.02;;;7.30;75.10;;;;;;4936608;29;20067;-60
2021/11/19 05:40:01;;;;;;;40.17;24.40;;;7.30;75.10;;;;;;4946271;28;20051;-60
2021/11/19 05:42:27;;;;;;;38.20;23.95;;;7.30;75.10;;;;;;4963313;28;20118;-61
2021/11/19 05:44:54;;;;;;;35.17;23.77;;;7.30;75.30;;;;;;4950784;28;20031;-60
2021/11/19 05:47:20;;;;;;;36.15;23.08;;;7.30;75.30;;;;;;4952860;28;20684;-61
2021/11/19 05:49:46;;;;;;;32.88;20.52;;;7.30;75.20;;;;;;4942939;28;20086;-61
2021/11/19 05:52:12;;;;;;;36.33;22.20;;;7.30;75.30;;;;;;4950247;29;20475;-61
2021/11/19 05:54:39;;;;;;;33.95;22.50;;;7.30;75.40;;;;;;4949405;28;20492;-61
2021/11/19 05:57:06;;;;;;;37.95;23.10;;;7.40;75.30;;;;;;4948366;29;20399;-61
2021/11/19 05:59:32;;;;;;;32.90;21.13;;;7.40;75.20;;;;;;4950185;29;20023;-60
2021/11/19 06:01:58;;;;;;;30.15;20.25;;;7.40;75.20;;;;;;4948896;28;20024;-61
2021/11/19 06:04:24;;;;;;;33.20;21.83;;;7.50;75.20;;;;;;4947292;28;20062;-61
2021/11/19 06:06:49;;;;;;;30.38;19.70;;;7.50;75.40;;;;;;4943446;29;20381;-60
2021/11/19 06:09:27;;;;;;;30.33;18.30;;;7.50;75.20;;;;;;4952685;28;20106;-60
2021/11/19 06:12:07;;;;;;;30.48;18.42;;;7.50;75.10;;;;;;4944135;28;20102;-61
2021/11/19 06:14:41;;;;;;;25.70;18.50;;;7.60;75.10;;;;;;4950068;28;20483;-61
2021/11/19 06:17:15;;;;;;;32.63;20.52;;;7.60;75.00;;;;;;4943849;28;20065;-61
2021/11/19 06:19:44;;;;;;;31.92;20.73;;;7.60;75.00;;;;;;4943530;28;20050;-61
2021/11/19 06:22:22;;;;;;;30.92;18.98;;;7.60;75.00;;;;;;4948890;29;20082;-59
2021/11/19 06:24:51;;;;;;;35.38;21.38;;;7.60;75.00;;;;;;4946582;28;20443;-61
2021/11/19 06:27:24;;;;;;;32.38;22.38;;;7.70;75.10;;;;;;4950710;28;20031;-61
2021/11/19 06:29:55;;;;;;;34.33;21.33;;;7.70;75.00;;;;;;4951725;28;20460;-61
2021/11/19 06:32:21;;;;;;;36.70;22.05;;;7.70;75.20;;;;;;4947878;29;20034;-61
2021/11/19 06:34:48;;;;;;;35.97;22.75;;;7.70;75.20;;;;;;4954125;29;20039;-60
2021/11/19 06:37:14;;;;;;;34.67;23.92;;;7.70;75.30;;;;;;4946929;28;20027;-61
2021/11/19 06:39:42;;;;;;;39.33;24.58;;;7.80;75.20;;;;;;4951683;28;20086;-61
2021/11/19 06:42:11;;;;;;;41.95;26.00;;;7.80;75.10;;;;;;4948859;28;20086;-61
2021/11/19 06:44:39;;;;;;;33.00;20.55;;;7.80;75.10;;;;;;4948336;29;20035;-61
2021/11/19 06:47:06;;;;;;;35.15;24.58;;;7.90;75.10;;;;;;4945995;28;20038;-61
2021/11/19 06:49:32;;;;;;;31.70;19.92;;;7.90;75.00;;;;;;4946070;28;20031;-61
2021/11/19 06:51:58;;;;;;;31.50;19.95;;;7.90;75.00;;;;;;4948022;28;20038;-61
2021/11/19 06:54:24;;;;;;;31.58;19.98;;;7.90;75.00;;;;;;4947197;28;20593;-61
2021/11/19 06:56:51;;;;;;;29.30;19.92;;;8.00;75.10;;;;;;4940893;28;20043;-61
2021/11/19 06:59:17;;;;;;;30.08;19.73;;;8.00;75.00;;;;;;4947012;28;20043;-61
2021/11/19 07:01:43;;;;;;;30.00;19.27;;;8.10;74.90;;;;;;4946164;28;20035;-61
2021/11/19 07:04:10;;;;;;;25.65;18.27;;;8.10;74.80;;;;;;4948961;28;20028;-61
2021/11/19 07:06:36;;;;;;;33.45;21.45;;;8.20;74.90;;;;;;4955339;28;20059;-61
2021/11/19 07:09:05;;;;;;;30.25;19.33;;;8.30;74.90;;;;;;4948126;28;20046;-62
2021/11/19 07:11:31;;;;;;;28.67;19.80;;;8.30;74.60;;;;;;4953805;28;20372;-62
2021/11/19 07:13:57;;;;;;;28.50;19.02;;;8.30;74.60;;;;;;4947857;28;20982;-62
2021/11/19 07:16:26;;;;;;;29.60;20.75;;;8.30;74.50;;;;;;4941181;28;20035;-63
2021/11/19 07:18:54;;;;;;;32.15;19.95;;;8.30;74.60;;;;;;4947612;28;20106;-61
2021/11/19 07:21:21;;;;;;;28.00;18.45;;;8.40;74.60;;;;;;4943784;28;20027;-59
2021/11/19 07:23:47;;;;;;;27.83;19.58;;;8.40;74.60;;;;;;4947220;28;20023;-62
2021/11/19 07:26:13;;;;;;;28.33;19.08;;;8.40;74.60;;;;;;4948767;28;20034;-62
2021/11/19 07:28:40;;;;;;;30.05;20.25;;;8.50;74.50;;;;;;4941673;28;20028;-61
2021/11/19 07:31:08;;;;;;;31.25;20.73;;;8.50;74.30;;;;;;4942805;28;20037;-63
2021/11/19 07:33:35;;;;;;;30.42;20.15;;;8.60;74.20;;;;;;4946878;28;20035;-62
2021/11/19 07:36:04;;;;;;;29.75;18.80;;;8.70;74.10;;;;;;4938635;28;20402;-63
2021/11/19 07:38:30;;;;;;;31.85;21.23;;;8.70;73.90;;;;;;4941965;28;20040;-62
2021/11/19 07:40:57;;;;;;;25.70;16.98;;;8.70;73.80;;;;;;4942142;28;20071;-62
2021/11/19 07:43:27;;;;;;;29.30;20.05;;;8.80;73.50;;;;;;4942618;28;20035;-62
2021/11/19 07:45:53;;;;;;;24.88;16.92;;;8.80;73.50;;;;;;4946414;28;20035;-63
2021/11/19 07:48:23;;;;;;;30.02;20.80;;;8.80;73.30;;;;;;4943358;28;20035;-62
2021/11/19 07:50:51;;;;;;;31.38;20.38;;;8.80;73.30;;;;;;4944637;28;20109;-61
2021/11/19 07:53:18;;;;;;;28.50;18.92;;;8.80;73.30;;;;;;4940965;28;20403;-62
2021/11/19 07:55:46;;;;;;;30.27;18.98;;;8.80;73.20;;;;;;4941861;28;20070;-62
2021/11/19 07:58:12;;;;;;;29.77;18.55;;;8.80;73.00;;;;;;4942261;28;20031;-62
2021/11/19 08:00:40;;;;;;;28.13;19.45;;;8.80;72.70;;;;;;4938493;28;20089;-63
2021/11/19 08:03:06;;;;;;;28.15;20.23;;;8.80;72.70;;;;;;4941690;28;20035;-61
2021/11/19 08:05:32;;;;;;;30.17;18.98;;;8.70;73.30;;;;;;4942397;28;20601;-62
2021/11/19 08:07:57;;;;;;;28.95;20.02;;;8.70;73.40;;;;;;4940353;28;20086;-62
2021/11/19 08:10:23;;;;;;;31.98;20.20;;;8.70;72.80;;;;;;4938696;28;20037;-62
2021/11/19 08:12:49;;;;;;;28.60;18.15;;;8.70;72.90;;;;;;4939061;28;20054;-63
2021/11/19 08:15:18;;;;;;;26.85;17.27;;;8.70;73.00;;;;;;4937160;28;20655;-63
2021/11/19 08:17:49;;;;;;;25.58;17.80;;;8.60;73.00;;;;;;4935133;28;20035;-63
2021/11/19 08:20:19;;;;;;;25.17;18.23;;;8.60;73.00;;;;;;4935441;28;20106;-62
2021/11/19 08:22:45;;;;;;;26.45;16.63;;;8.60;73.20;;;;;;4936489;28;20528;-63
2021/11/19 08:25:11;;;;;;;25.10;18.58;;;8.60;73.20;;;;;;4932892;28;20142;-63
2021/11/19 08:27:45;;;;;;;25.95;17.90;;;8.50;73.10;;;;;;4937575;28;20027;-62
2021/11/19 08:30:19;;;;;;;24.15;15.75;;;8.50;73.40;;;;;;4936654;28;20039;-62
2021/11/19 08:32:45;;;;;;;25.20;17.02;;;8.60;73.00;;;;;;4937598;28;20031;-62
2021/11/19 08:35:12;;;;;;;23.52;15.95;;;8.50;72.90;;;;;;4939617;28;20070;-60
2021/11/19 08:37:38;;;;;;;30.38;16.38;;;8.50;72.60;;;;;;4939288;28;20031;-61
2021/11/19 08:40:08;;;;;;;24.92;16.73;;;8.50;72.60;;;;;;4938714;28;20398;-60
2021/11/19 08:42:34;;;;;;;22.63;17.00;;;8.50;72.70;;;;;;4939224;29;20037;-62
2021/11/19 08:44:59;;;;;;;26.25;18.23;;;8.60;72.60;;;;;;4937770;28;20066;-62
2021/11/19 08:47:25;;;;;;;27.17;17.55;;;8.50;72.70;;;;;;4937787;28;20130;-61
2021/11/19 08:49:52;;;;;;;26.25;18.17;;;8.50;72.70;;;;;;4934393;28;20043;-62
2021/11/19 08:52:21;;;;;;;25.83;17.50;;;8.50;72.70;;;;;;4925399;28;20039;-62
2021/11/19 08:54:48;;;;;;;24.45;16.95;;;8.40;72.80;;;;;;4926534;28;20039;-62
2021/11/19 08:57:17;;;;;;;24.23;16.65;;;8.40;72.80;;;;;;4934560;28;20166;-61
2021/11/19 08:59:45;;;;;;;26.08;16.85;;;8.30;72.80;;;;;;4933724;28;20109;-62
2021/11/19 09:02:13;;;;;;;24.48;16.85;;;8.30;73.10;;;;;;4932796;28;20078;-61
2021/11/19 09:04:38;;;;;;;22.25;16.00;;;8.30;73.10;;;;;;4932357;28;20031;-60
2021/11/19 09:07:04;;;;;;;23.67;15.20;;;8.30;73.40;;;;;;4924620;28;20468;-61
2021/11/19 09:09:31;;;;;;;24.15;16.85;;;8.20;74.10;;;;;;4933593;28;20501;-62
2021/11/19 09:11:57;;;;;;;21.65;16.08;;;8.20;73.70;;;;;;4931743;28;20633;-62
2021/11/19 09:14:24;;;;;;;24.27;17.13;;;8.20;73.90;;;;;;4929899;28;20046;-63
2021/11/19 09:17:24;;;;;;;24.20;16.48;;;8.20;74.10;;;;;;4937123;28;20032;-62
2021/11/19 09:19:57;;;;;;;26.67;16.67;;;8.20;74.20;;;;;;4933344;28;20040;-62
2021/11/19 09:22:51;;;;;;;23.75;16.90;;;8.20;74.40;;;;;;4936076;28;20035;-61
2021/11/19 09:25:19;;;;;;;26.85;19.23;;;8.30;74.60;;;;;;4933499;28;20023;-62
2021/11/19 09:27:46;;;;;;;28.23;19.27;;;8.30;74.60;;;;;;4931740;28;20035;-61
2021/11/19 09:30:20;;;;;;;30.77;20.38;;;8.30;74.80;;;;;;4936617;28;20035;-62
2021/11/19 09:32:52;;;;;;;29.25;19.65;;;8.30;74.90;;;;;;4922728;28;20122;-62
2021/11/19 09:35:18;;;;;;;;;;;8.30;75.00;;;;;;4934290;28;20031;-62
2021/11/19 09:37:46;;;;;;;25.67;15.82;;;8.30;75.00;;;;;;4939078;28;19926;-62
2021/11/19 09:40:13;;;;;;;27.17;18.58;;;8.30;74.80;;;;;;4940497;28;20111;-62
2021/11/19 09:42:52;;;;;;;27.45;17.40;;;8.30;74.70;;;;;;4936788;28;20089;-62
2021/11/19 09:45:38;;;;;;;27.10;17.70;;;8.40;74.70;;;;;;4937554;28;20102;-61
2021/11/19 09:48:22;;;;;;;28.35;18.75;;;8.40;74.70;;;;;;4932664;28;20027;-62
2021/11/19 09:51:06;;;;;;;29.33;19.25;;;8.40;74.70;;;;;;4943065;28;20484;-62
2021/11/19 09:53:50;;;;;;;26.30;18.10;;;8.40;74.70;;;;;;4930570;28;20042;-63
2021/11/19 09:56:43;;;;;;;26.92;17.95;;;8.40;74.80;;;;;;4934752;28;20027;-62
2021/11/19 09:59:35;;;;;;;27.05;17.40;;;8.50;74.60;;;;;;4933215;28;20119;-62
2021/11/19 10:02:16;;;;;;;29.40;17.98;;;8.40;74.60;;;;;;4925830;28;20035;-61
2021/11/19 10:04:50;;;;;;;25.42;16.08;;;8.40;74.50;;;;;;4934647;28;20043;-61
2021/11/19 10:07:31;;;;;;;25.40;17.33;;;8.40;74.70;;;;;;4933975;28;20078;-62
2021/11/19 10:10:21;;;;;;;26.27;18.48;;;8.40;74.70;;;;;;4934266;28;20059;-62
2021/11/19 10:13:05;;;;;;;29.80;18.35;;;8.50;74.80;;;;;;4925439;28;20634;-62
2021/11/19 10:15:49;;;;;;;30.27;21.50;;;8.50;74.80;;;;;;4934624;28;20147;-62
2021/11/19 10:18:19;;;;;;;26.95;19.80;;;8.50;75.00;;;;;;4925100;28;20054;-61
2021/11/19 10:21:02;;;;;;;30.77;20.90;;;8.50;75.20;;;;;;4934731;28;20039;-61
2021/11/19 10:23:35;;;;;;;29.02;20.75;;;8.50;75.40;;;;;;4928350;28;20562;-61
2021/11/19 10:29:30;;;;;;;32.35;21.77;;;8.50;75.70;;;;;;4932499;29;20892;-62
2021/11/19 10:31:59;;;;;;;35.08;23.27;;;8.60;75.80;;;;;;4929482;28;20091;-62
2021/11/19 10:34:36;;;;;;;31.08;21.15;;;8.60;75.90;;;;;;4931382;28;20114;-63
2021/11/19 10:37:36;;;;;;;30.83;22.73;;;8.50;76.00;;;;;;4929325;28;20031;-62
2021/11/19 10:40:52;;;;;;;32.15;20.13;;;8.60;76.20;;;;;;4921946;28;20047;-61
2021/11/19 10:43:39;;;;;;;27.70;20.70;;;8.50;76.10;;;;;;4911756;28;20082;-62
2021/11/19 10:46:24;;;;;;;29.42;20.92;;;8.60;76.40;;;;;;4935632;28;20436;-61
2021/11/19 10:49:05;;;;;;;28.65;20.02;;;8.50;76.40;;;;;;4928479;28;20059;-61
2021/11/19 10:51:52;;;;;;;29.88;21.60;;;8.60;76.60;;;;;;4930771;28;20035;-60
2021/11/19 10:54:21;;;;;;;28.55;20.85;;;8.60;76.60;;;;;;4921841;28;20114;-64
2021/11/19 10:57:11;;;;;;;26.35;18.67;;;8.60;76.80;;;;;;4925413;28;20095;-62
2021/11/19 10:59:39;;;;;;;25.33;18.13;;;8.70;76.80;;;;;;4919731;28;20044;-62
2021/11/19 11:02:08;;;;;;;30.92;20.98;;;8.60;76.70;;;;;;4927515;28;20581;-62
2021/11/19 11:04:53;;;;;;;28.13;18.83;;;8.60;76.70;;;;;;4926745;28;21866;-61
2021/11/19 11:07:25;;;;;;;23.75;17.85;;;8.60;76.70;;;;;;4927528;28;20059;-63
2021/11/19 11:09:59;;;;;;;25.80;18.40;;;8.60;76.90;;;;;;4929552;28;20102;-62
2021/11/19 11:12:43;;;;;;;24.50;17.42;;;8.60;76.90;;;;;;4925607;28;20032;-62
2021/11/19 11:15:30;;;;;;;25.63;18.73;;;8.60;76.90;;;;;;4930930;28;20061;-62
2021/11/19 11:18:05;;;;;;;23.15;17.00;;;8.60;76.90;;;;;;4936872;28;20042;-62
2021/11/19 11:20:38;;;;;;;26.15;17.80;;;8.60;76.90;;;;;;4934152;28;20059;-62
2021/11/19 11:23:20;;;;;;;24.75;16.58;;;8.60;76.90;;;;;;4933342;28;20484;-62
2021/11/19 11:25:57;;;;;;;23.27;17.10;;;8.60;76.90;;;;;;4934950;28;20110;-62
2021/11/19 11:28:51;;;;;;;21.45;16.10;;;8.60;77.20;;;;;;4936195;28;20031;-62
2021/11/19 11:31:54;;;;;;;20.75;16.33;;;8.60;77.00;;;;;;4931980;28;20473;-62
2021/11/19 11:34:42;;;;;;;21.77;17.00;;;8.60;76.90;;;;;;4935071;28;20070;-62
2021/11/19 11:37:17;;;;;;;22.13;15.65;;;8.50;77.10;;;;;;4936973;28;20377;-62
2021/11/19 11:40:12;;;;;;;25.45;17.42;;;8.50;77.10;;;;;;4931858;28;20059;-60
2021/11/19 11:42:48;;;;;;;23.05;16.92;;;8.50;77.10;;;;;;4933528;28;20019;-60
2021/11/19 11:45:22;;;;;;;23.35;17.52;;;8.50;77.50;;;;;;4934967;28;20031;-60
2021/11/19 11:47:51;;;;;;;23.00;16.45;;;8.50;77.40;;;;;;4936365;28;20043;-60
2021/11/19 11:50:44;;;;;;;23.20;15.75;;;8.50;77.40;;;;;;4938257;28;20047;-61
2021/11/19 11:53:20;;;;;;;22.90;17.23;;;8.50;77.30;;;;;;4942361;28;20090;-60
2021/11/19 11:56:14;;;;;;;23.65;16.77;;;8.50;77.60;;;;;;4938087;28;20070;-61
2021/11/19 11:59:00;;;;;;;19.95;15.38;;;8.60;77.70;;;;;;4937009;28;20057;-60
2021/11/19 12:01:41;;;;;;;25.40;17.23;;;8.60;77.70;;;;;;4921388;28;20031;-61
2021/11/19 12:04:29;;;;;;;20.83;16.38;;;8.60;77.70;;;;;;4928973;28;21774;-62
2021/11/19 12:07:10;;;;;;;22.73;15.25;;;8.60;77.40;;;;;;4929869;28;20035;-61
2021/11/19 12:09:41;;;;;;;21.73;16.10;;;8.60;77.60;;;;;;4930697;28;20575;-62
2021/11/19 12:12:19;;;;;;;24.02;17.77;;;8.60;77.50;;;;;;4925999;28;20533;-61
2021/11/19 12:15:14;;;;;;;19.83;15.77;;;8.60;77.50;;;;;;4930973;28;20102;-62
2021/11/19 12:18:02;;;;;;;22.55;16.08;;;8.60;77.40;;;;;;4933188;28;20835;-62
2021/11/19 12:20:52;;;;;;;19.83;15.30;;;8.60;77.60;;;;;;4933071;28;20126;-62
2021/11/19 12:23:55;;;;;;;22.98;16.48;;;8.50;77.50;;;;;;4932769;28;20028;-62
2021/11/19 12:26:59;;;;;;;19.13;13.27;;;8.50;77.60;;;;;;4936557;28;20338;-62
2021/11/19 12:29:45;;;;;;;20.63;15.73;;;8.50;77.60;;;;;;4930927;28;20213;-59
2021/11/19 12:32:23;;;;;;;19.75;15.25;;;8.50;77.60;;;;;;4938549;28;20395;-59
2021/11/19 12:35:08;;;;;;;22.73;15.32;;;8.50;77.70;;;;;;4931830;28;20040;-61
2021/11/19 12:37:41;;;;;;;18.98;14.20;;;8.50;77.70;;;;;;4930739;28;23844;-61
2021/11/19 12:40:30;;;;;;;21.00;15.35;;;8.50;78.50;;;;;;4929978;28;20755;-60
2021/11/19 12:43:03;;;;;;;19.88;15.40;;;8.50;77.80;;;;;;4933459;28;20038;-59
2021/11/19 12:45:33;;;;;;;20.23;14.85;;;8.50;77.80;;;;;;4934085;28;20031;-62
2021/11/19 12:48:21;;;;;;;18.13;14.25;;;8.50;77.90;;;;;;4936525;28;20122;-62
2021/11/19 12:51:24;;;;;;;19.05;15.32;;;8.50;77.90;;;;;;4929691;28;20462;-59
2021/11/19 12:54:20;;;;;;;19.80;15.10;;;8.50;77.90;;;;;;4933853;28;20046;-59
2021/11/19 12:57:18;;;;;;;20.60;15.50;;;8.50;78.20;;;;;;4933675;28;20091;-61
2021/11/19 13:00:15;;;;;;;20.10;14.38;;;8.50;78.30;;;;;;4931055;28;20066;-60
2021/11/19 13:02:47;;;;;;;17.55;14.27;;;8.50;78.40;;;;;;4931780;28;20182;-61
2021/11/19 13:05:26;;;;;;;20.90;16.42;;;8.60;78.00;;;;;;4938474;28;20059;-60
2021/11/19 13:08:21;;;;;;;18.30;13.55;;;8.60;78.00;;;;;;4936080;28;20062;-59